Time;durP1;ratioP1;P1;durP2;ratioP2;P2;SDS_P1;SDS_P2;PMS_P1;PMS_P2;Temp;Humidity;BMP_temperature;BMP_pressure;BME280_temperature;BME280_humidity;BME280_pressure;Samples;Min_cycle;Max_cycle;Signal;HPM_P1;HPM_P2
2023/02/05 00:02:06;;;;;;;0.20;0.20;;;;;;;;;;5050864;28;20241;-76
2023/02/05 00:04:34;;;;;;;0.20;0.20;;;;;;;;;;5047467;28;20425;-76
2023/02/05 00:07:00;;;;;;;0.20;0.20;;;;;;;;;;5050200;28;20248;-76
2023/02/05 00:09:27;;;;;;;0.20;0.20;;;;;;;;;;5047905;28;20279;-76
2023/02/05 00:11:53;;;;;;;0.20;0.20;;;;;;;;;;5049660;28;20243;-76
2023/02/05 00:14:20;;;;;;;0.20;0.20;;;;;;;;;;5047726;28;20208;-76
2023/02/05 00:16:46;;;;;;;0.20;0.20;;;;;;;;;;5048575;28;20276;-76
2023/02/05 00:19:13;;;;;;;0.20;0.20;;;;;;;;;;5049108;28;20411;-76
2023/02/05 00:21:40;;;;;;;0.20;0.20;;;;;;;;;;5047670;28;20252;-76
2023/02/05 00:24:07;;;;;;;0.20;0.20;;;;;;;;;;5049745;28;20402;-75
2023/02/05 00:26:33;;;;;;;0.20;0.20;;;;;;;;;;5046865;28;20237;-76
2023/02/05 00:29:00;;;;;;;0.20;0.20;;;;;;;;;;5050337;28;20558;-73
2023/02/05 00:31:27;;;;;;;0.20;0.20;;;;;;;;;;5037630;28;20372;-73
2023/02/05 00:33:53;;;;;;;0.20;0.20;;;;;;;;;;5051180;28;20206;-74
2023/02/05 00:36:20;;;;;;;0.20;0.20;;;;;;;;;;5044944;28;20500;-73
2023/02/05 00:38:48;;;;;;;0.20;0.20;;;;;;;;;;5051908;28;20510;-74
2023/02/05 00:41:17;;;;;;;0.20;0.20;;;;;;;;;;5043626;28;20246;-73
2023/02/05 00:43:44;;;;;;;0.20;0.20;;;;;;;;;;5052228;28;20267;-73
2023/02/05 00:46:11;;;;;;;0.20;0.20;;;;;;;;;;5043318;28;20243;-73
2023/02/05 00:48:37;;;;;;;0.27;0.27;;;;;;;;;;5053224;28;20401;-73
2023/02/05 00:51:04;;;;;;;0.20;0.20;;;;;;;;;;5042602;28;20306;-74
2023/02/05 00:53:30;;;;;;;0.20;0.20;;;;;;;;;;5053738;28;20200;-74
2023/02/05 00:55:58;;;;;;;0.20;0.20;;;;;;;;;;5041148;28;20603;-74
2023/02/05 00:58:24;;;;;;;0.23;0.23;;;;;;;;;;5054637;28;20459;-74
2023/02/05 01:00:51;;;;;;;0.20;0.20;;;;;;;;;;5040653;28;20623;-74
2023/02/05 01:03:18;;;;;;;0.20;0.20;;;;;;;;;;5055027;28;20207;-73
2023/02/05 01:05:44;;;;;;;0.20;0.20;;;;;;;;;;5039859;28;20243;-74
2023/02/05 01:08:11;;;;;;;0.20;0.20;;;;;;;;;;5056066;28;20374;-74
2023/02/05 01:10:38;;;;;;;0.20;0.20;;;;;;;;;;5038446;28;20273;-74
2023/02/05 01:13:06;;;;;;;0.20;0.20;;;;;;;;;;5057063;28;20403;-74
2023/02/05 01:15:33;;;;;;;0.27;0.27;;;;;;;;;;5038281;28;20576;-74
2023/02/05 01:17:59;;;;;;;0.20;0.20;;;;;;;;;;5057083;28;20293;-74
2023/02/05 01:20:26;;;;;;;0.20;0.20;;;;;;;;;;5037101;28;20250;-74
2023/02/05 01:22:53;;;;;;;0.30;0.30;;;;;;;;;;5057841;28;20216;-74
2023/02/05 01:25:19;;;;;;;0.20;0.20;;;;;;;;;;5036352;28;20248;-74
2023/02/05 01:27:46;;;;;;;0.20;0.20;;;;;;;;;;5058845;28;20496;-74
2023/02/05 01:30:14;;;;;;;0.20;0.20;;;;;;;;;;5035020;28;20255;-74
2023/02/05 01:32:41;;;;;;;0.20;0.20;;;;;;;;;;5059550;28;20231;-74
2023/02/05 01:35:08;;;;;;;0.20;0.20;;;;;;;;;;5039529;28;20215;-75
2023/02/05 01:37:38;;;;;;;0.27;0.27;;;;;;;;;;5059884;28;20231;-74
2023/02/05 01:40:07;;;;;;;0.30;0.30;;;;;;;;;;5044898;28;20397;-74
2023/02/05 01:42:34;;;;;;;0.20;0.20;;;;;;;;;;5049791;28;20257;-74
2023/02/05 01:45:19;;;;;;;0.30;0.30;;;;;;;;;;5044395;28;20250;-74
2023/02/05 01:47:47;;;;;;;0.30;0.30;;;;;;;;;;5044503;28;20234;-74
2023/02/05 01:50:15;;;;;;;0.20;0.20;;;;;;;;;;5035486;28;20217;-74
2023/02/05 01:52:46;;;;;;;0.20;0.20;;;;;;;;;;5059132;28;20403;-74
2023/02/05 01:55:12;;;;;;;0.20;0.20;;;;;;;;;;5036376;28;20202;-74
2023/02/05 01:57:39;;;;;;;0.20;0.20;;;;;;;;;;5059404;28;20530;-74
2023/02/05 02:00:07;;;;;;;0.20;0.20;;;;;;;;;;5044492;28;20514;-74
2023/02/05 02:02:37;;;;;;;0.20;0.20;;;;;;;;;;5049219;28;20318;-73
2023/02/05 02:05:08;;;;;;;0.23;0.23;;;;;;;;;;5044308;28;20202;-74
2023/02/05 02:07:35;;;;;;;0.20;0.20;;;;;;;;;;5032222;28;20203;-74
2023/02/05 02:10:02;;;;;;;0.20;0.20;;;;;;;;;;5044002;28;20205;-74
2023/02/05 02:12:32;;;;;;;0.20;0.20;;;;;;;;;;5049263;28;20243;-75
2023/02/05 02:14:59;;;;;;;0.20;0.20;;;;;;;;;;5044461;28;20205;-74
2023/02/05 02:17:28;;;;;;;0.27;0.27;;;;;;;;;;5049249;28;20263;-74
2023/02/05 02:19:59;;;;;;;0.20;0.20;;;;;;;;;;5043983;28;20206;-74
2023/02/05 02:22:34;;;;;;;0.20;0.20;;;;;;;;;;5049113;28;20244;-74
2023/02/05 02:25:07;;;;;;;0.30;0.30;;;;;;;;;;5044164;28;20249;-74
2023/02/05 02:27:40;;;;;;;0.30;0.30;;;;;;;;;;5049095;28;20239;-74
2023/02/05 02:30:09;;;;;;;0.30;0.30;;;;;;;;;;5043888;28;20218;-74
2023/02/05 02:32:38;;;;;;;0.30;0.30;;;;;;;;;;5032347;28;20225;-74
2023/02/05 02:35:06;;;;;;;0.30;0.30;;;;;;;;;;5043980;28;20520;-74
2023/02/05 02:37:35;;;;;;;3.73;3.50;;;;;;;;;;5032587;28;20240;-74
2023/02/05 02:40:06;;;;;;;0.30;0.30;;;;;;;;;;5044124;28;20205;-74
2023/02/05 02:42:34;;;;;;;0.30;0.30;;;;;;;;;;5032399;28;20283;-74
2023/02/05 02:45:06;;;;;;;0.30;0.30;;;;;;;;;;5043820;28;20451;-74
2023/02/05 02:47:36;;;;;;;0.30;0.30;;;;;;;;;;5032268;28;20232;-74
2023/02/05 02:50:04;;;;;;;0.30;0.30;;;;;;;;;;5043676;28;20214;-73
2023/02/05 02:52:33;;;;;;;0.30;0.30;;;;;;;;;;5048804;28;20437;-75
2023/02/05 02:55:04;;;;;;;0.30;0.30;;;;;;;;;;5043320;28;20205;-74
2023/02/05 02:57:32;;;;;;;0.30;0.30;;;;;;;;;;5048778;28;20453;-74
2023/02/05 03:00:00;;;;;;;0.30;0.30;;;;;;;;;;5043650;28;20198;-74
2023/02/05 03:02:30;;;;;;;0.30;0.30;;;;;;;;;;5048755;28;20240;-74
2023/02/05 03:04:58;;;;;;;0.20;0.20;;;;;;;;;;5043661;28;20224;-74
2023/02/05 03:07:26;;;;;;;1.23;1.23;;;;;;;;;;5048665;28;20271;-74
2023/02/05 03:09:57;;;;;;;0.30;0.30;;;;;;;;;;5043433;28;20249;-74
2023/02/05 03:12:23;;;;;;;0.30;0.30;;;;;;;;;;5048765;28;20244;-74
2023/02/05 03:14:51;;;;;;;0.30;0.30;;;;;;;;;;5043591;28;20206;-74
2023/02/05 03:17:18;;;;;;;0.30;0.30;;;;;;;;;;5048513;28;20443;-74
2023/02/05 03:19:46;;;;;;;0.23;0.23;;;;;;;;;;5044744;28;20208;-73
2023/02/05 03:22:12;;;;;;;0.30;0.30;;;;;;;;;;5052497;28;20260;-74
2023/02/05 03:24:39;;;;;;;0.30;0.30;;;;;;;;;;5047438;28;20393;-73
2023/02/05 03:27:05;;;;;;;0.30;0.30;;;;;;;;;;5052258;28;20259;-74
2023/02/05 03:29:33;;;;;;;0.30;0.30;;;;;;;;;;5046882;28;20272;-73
2023/02/05 03:32:04;;;;;;;0.30;0.30;;;;;;;;;;5051417;28;20247;-73
2023/02/05 03:34:36;;;;;;;0.30;0.30;;;;;;;;;;5047656;28;20204;-74
2023/02/05 03:37:08;;;;;;;0.27;0.27;;;;;;;;;;5051715;28;20252;-74
2023/02/05 03:39:42;;;;;;;0.30;0.30;;;;;;;;;;5046872;28;20280;-73
2023/02/05 03:42:12;;;;;;;0.30;0.30;;;;;;;;;;5052131;28;20304;-74
2023/02/05 03:44:47;;;;;;;0.30;0.30;;;;;;;;;;5047049;28;20398;-74
2023/02/05 03:47:20;;;;;;;0.30;0.30;;;;;;;;;;5052076;28;20295;-74
2023/02/05 03:49:51;;;;;;;0.30;0.30;;;;;;;;;;5047027;28;20204;-74
2023/02/05 03:52:21;;;;;;;0.30;0.30;;;;;;;;;;5052084;28;20248;-74
2023/02/05 03:54:51;;;;;;;0.30;0.30;;;;;;;;;;5046513;28;20205;-73
2023/02/05 03:57:19;;;;;;;0.30;0.30;;;;;;;;;;5051704;28;20242;-74
2023/02/05 03:59:47;;;;;;;0.30;0.30;;;;;;;;;;5046789;28;20526;-74
2023/02/05 04:02:13;;;;;;;0.30;0.30;;;;;;;;;;5051798;28;20462;-74
2023/02/05 04:04:40;;;;;;;0.30;0.30;;;;;;;;;;5046655;28;20443;-74
2023/02/05 04:07:06;;;;;;;0.30;0.30;;;;;;;;;;5051640;28;20298;-74
2023/02/05 04:09:34;;;;;;;0.30;0.30;;;;;;;;;;5046618;28;20526;-74
2023/02/05 04:12:00;;;;;;;0.30;0.30;;;;;;;;;;5050682;28;20252;-72
2023/02/05 04:14:27;;;;;;;0.30;0.30;;;;;;;;;;5046992;28;20243;-73
2023/02/05 04:16:53;;;;;;;0.30;0.30;;;;;;;;;;5049707;28;20455;-74
2023/02/05 04:19:19;;;;;;;0.30;0.30;;;;;;;;;;5047971;28;20229;-73
2023/02/05 04:21:46;;;;;;;0.30;0.30;;;;;;;;;;5048570;28;20313;-74
2023/02/05 04:24:12;;;;;;;0.30;0.30;;;;;;;;;;5048707;28;20280;-74
2023/02/05 04:26:40;;;;;;;0.30;0.30;;;;;;;;;;5047952;28;20305;-74
2023/02/05 04:29:07;;;;;;;0.30;0.30;;;;;;;;;;5049444;28;20210;-75
2023/02/05 04:31:33;;;;;;;0.30;0.30;;;;;;;;;;5045627;28;20241;-74
2023/02/05 04:33:59;;;;;;;0.30;0.30;;;;;;;;;;5050432;28;20544;-74
2023/02/05 04:36:29;;;;;;;0.30;0.30;;;;;;;;;;5045683;28;20245;-73
2023/02/05 04:38:55;;;;;;;0.30;0.30;;;;;;;;;;5050540;28;20231;-74
2023/02/05 04:41:21;;;;;;;0.20;0.20;;;;;;;;;;5044108;28;20251;-74
2023/02/05 04:43:51;;;;;;;0.30;0.30;;;;;;;;;;5052472;28;20202;-74
2023/02/05 04:46:18;;;;;;;0.30;0.30;;;;;;;;;;5043759;28;20244;-74
2023/02/05 04:48:47;;;;;;;0.30;0.30;;;;;;;;;;5052181;28;20194;-74
2023/02/05 04:51:14;;;;;;;0.30;0.30;;;;;;;;;;5043637;28;20302;-74
2023/02/05 04:53:41;;;;;;;0.30;0.30;;;;;;;;;;5053154;28;20233;-73
2023/02/05 04:56:08;;;;;;;0.30;0.30;;;;;;;;;;5042279;28;20244;-74
2023/02/05 04:58:36;;;;;;;0.30;0.30;;;;;;;;;;5053123;28;20266;-73
2023/02/05 05:01:04;;;;;;;0.30;0.30;;;;;;;;;;5040174;28;20507;-73
2023/02/05 05:03:31;;;;;;;0.30;0.30;;;;;;;;;;5055106;28;20421;-73
2023/02/05 05:06:02;;;;;;;0.30;0.30;;;;;;;;;;5041555;28;20245;-74
2023/02/05 05:08:29;;;;;;;0.30;0.30;;;;;;;;;;5053835;28;20244;-75
2023/02/05 05:10:57;;;;;;;0.30;0.30;;;;;;;;;;5041094;28;20245;-74
2023/02/05 05:13:23;;;;;;;0.30;0.30;;;;;;;;;;5054103;28;20203;-74
2023/02/05 05:15:53;;;;;;;0.30;0.30;;;;;;;;;;5039910;28;20332;-74
2023/02/05 05:18:20;;;;;;;0.30;0.30;;;;;;;;;;5054894;28;20227;-74
2023/02/05 05:20:47;;;;;;;0.30;0.30;;;;;;;;;;5040042;28;20455;-74
2023/02/05 05:23:13;;;;;;;0.50;0.50;;;;;;;;;;5055544;28;20208;-74
2023/02/05 05:25:41;;;;;;;0.30;0.30;;;;;;;;;;5038732;28;20245;-73
2023/02/05 05:28:07;;;;;;;0.30;0.30;;;;;;;;;;5056362;28;20416;-73
2023/02/05 05:30:34;;;;;;;0.30;0.30;;;;;;;;;;5038244;28;20323;-73
2023/02/05 05:33:00;;;;;;;0.30;0.30;;;;;;;;;;5056636;28;20199;-73
2023/02/05 05:35:28;;;;;;;0.30;0.30;;;;;;;;;;5036992;28;22123;-73
2023/02/05 05:37:56;;;;;;;0.30;0.30;;;;;;;;;;5057315;28;20271;-73
2023/02/05 05:45:52;;;;;;;0.30;0.30;;;;;;;;;;5040560;28;20255;-74
2023/02/05 05:48:19;;;;;;;0.30;0.30;;;;;;;;;;5054033;28;20275;-74
2023/02/05 05:50:48;;;;;;;0.30;0.30;;;;;;;;;;5039319;28;20261;-74
2023/02/05 05:53:14;;;;;;;0.30;0.30;;;;;;;;;;5054781;28;20287;-74
2023/02/05 05:55:40;;;;;;;0.30;0.30;;;;;;;;;;5038496;28;20611;-74
2023/02/05 05:58:07;;;;;;;0.30;0.30;;;;;;;;;;5055467;28;20229;-74
2023/02/05 06:00:34;;;;;;;0.30;0.30;;;;;;;;;;5037163;28;20253;-74
2023/02/05 06:03:00;;;;;;;0.30;0.30;;;;;;;;;;5056663;28;20202;-74
2023/02/05 06:05:26;;;;;;;0.30;0.30;;;;;;;;;;5036859;28;20251;-74
2023/02/05 06:07:54;;;;;;;0.30;0.30;;;;;;;;;;5057136;28;20203;-71
2023/02/05 06:10:20;;;;;;;0.30;0.30;;;;;;;;;;5035824;28;20286;-74
2023/02/05 06:12:47;;;;;;;0.30;0.30;;;;;;;;;;5058062;28;20269;-74
2023/02/05 06:15:13;;;;;;;0.30;0.30;;;;;;;;;;5034668;28;20277;-74
2023/02/05 06:17:39;;;;;;;0.30;0.30;;;;;;;;;;5058542;28;20228;-74
2023/02/05 06:20:06;;;;;;;0.30;0.30;;;;;;;;;;5044216;28;20229;-74
2023/02/05 06:22:33;;;;;;;0.30;0.30;;;;;;;;;;5032578;28;20256;-74
2023/02/05 06:25:01;;;;;;;0.30;0.30;;;;;;;;;;5044261;28;20258;-74
2023/02/05 06:27:27;;;;;;;0.73;0.73;;;;;;;;;;5049147;28;20299;-74
2023/02/05 06:29:53;;;;;;;0.30;0.30;;;;;;;;;;5043807;28;20279;-73
2023/02/05 06:32:20;;;;;;;0.30;0.30;;;;;;;;;;5049063;28;20267;-74
2023/02/05 06:34:46;;;;;;;0.40;0.40;;;;;;;;;;5043632;28;20489;-74
2023/02/05 06:37:13;;;;;;;0.40;0.40;;;;;;;;;;5049074;28;20256;-74
2023/02/05 06:39:39;;;;;;;0.30;0.30;;;;;;;;;;5043884;28;20252;-74
2023/02/05 06:42:07;;;;;;;0.30;0.30;;;;;;;;;;5048811;28;20242;-74
2023/02/05 06:44:33;;;;;;;0.40;0.40;;;;;;;;;;5043723;28;20293;-74
2023/02/05 06:47:00;;;;;;;0.30;0.30;;;;;;;;;;5047727;28;20253;-74
2023/02/05 06:49:27;;;;;;;0.30;0.30;;;;;;;;;;5044317;28;20204;-74
2023/02/05 06:51:53;;;;;;;0.30;0.30;;;;;;;;;;5046366;28;20312;-74
2023/02/05 06:54:20;;;;;;;0.30;0.30;;;;;;;;;;5045340;28;20243;-74
2023/02/05 06:56:46;;;;;;;0.30;0.30;;;;;;;;;;5046077;28;20267;-74
2023/02/05 06:59:14;;;;;;;0.30;0.30;;;;;;;;;;5046091;28;20239;-73
2023/02/05 07:01:40;;;;;;;0.30;0.30;;;;;;;;;;5045368;28;20260;-73
2023/02/05 07:04:07;;;;;;;0.30;0.30;;;;;;;;;;5046670;28;20406;-74
2023/02/05 07:06:33;;;;;;;0.30;0.30;;;;;;;;;;5044332;28;20424;-74
2023/02/05 07:09:00;;;;;;;0.30;0.30;;;;;;;;;;5047528;28;20202;-73
2023/02/05 07:11:26;;;;;;;0.30;0.30;;;;;;;;;;5043550;28;20633;-74
2023/02/05 07:13:52;;;;;;;0.30;0.30;;;;;;;;;;5048379;28;20204;-74
2023/02/05 07:16:20;;;;;;;0.30;0.30;;;;;;;;;;5042602;28;20468;-74
2023/02/05 07:18:47;;;;;;;0.30;0.30;;;;;;;;;;5049456;28;20229;-73
2023/02/05 07:21:15;;;;;;;0.30;0.30;;;;;;;;;;5041827;28;20240;-73
2023/02/05 07:23:42;;;;;;;0.70;0.70;;;;;;;;;;5049903;28;20214;-74
2023/02/05 07:26:08;;;;;;;0.30;0.30;;;;;;;;;;5041511;28;20510;-74
2023/02/05 07:28:35;;;;;;;0.30;0.30;;;;;;;;;;5050811;28;20251;-73
2023/02/05 07:31:02;;;;;;;0.30;0.30;;;;;;;;;;5039877;28;20487;-73
2023/02/05 07:33:30;;;;;;;0.30;0.30;;;;;;;;;;5051533;28;20562;-74
2023/02/05 07:35:57;;;;;;;0.30;0.30;;;;;;;;;;5039525;28;20243;-74
2023/02/05 07:38:23;;;;;;;0.30;0.30;;;;;;;;;;5052182;28;20449;-73
2023/02/05 07:40:50;;;;;;;0.30;0.30;;;;;;;;;;5038660;28;20240;-74
2023/02/05 07:43:16;;;;;;;0.30;0.30;;;;;;;;;;5053050;28;20521;-73
2023/02/05 07:45:43;;;;;;;0.30;0.30;;;;;;;;;;5037817;28;20250;-74
2023/02/05 07:48:09;;;;;;;0.30;0.30;;;;;;;;;;5053618;28;20228;-74
2023/02/05 07:50:37;;;;;;;0.30;0.30;;;;;;;;;;5036596;28;20241;-73
2023/02/05 07:53:03;;;;;;;0.30;0.30;;;;;;;;;;5054884;28;20250;-74
2023/02/05 07:55:29;;;;;;;0.30;0.30;;;;;;;;;;5035904;28;20256;-73
2023/02/05 07:57:56;;;;;;;0.30;0.30;;;;;;;;;;5055413;28;20234;-74
2023/02/05 08:00:23;;;;;;;0.37;0.37;;;;;;;;;;5034846;28;20414;-74
2023/02/05 08:02:50;;;;;;;0.30;0.30;;;;;;;;;;5056494;28;20364;-74
2023/02/05 08:05:16;;;;;;;0.30;0.30;;;;;;;;;;5033922;28;20510;-74
2023/02/05 08:07:44;;;;;;;0.30;0.30;;;;;;;;;;5059844;28;20194;-74
2023/02/05 08:10:13;;;;;;;0.30;0.30;;;;;;;;;;5036746;28;20429;-74
2023/02/05 08:12:39;;;;;;;0.33;0.33;;;;;;;;;;5061202;28;20386;-74
2023/02/05 08:15:06;;;;;;;0.30;0.30;;;;;;;;;;5046619;28;20251;-74
2023/02/05 08:17:32;;;;;;;0.30;0.30;;;;;;;;;;5051554;28;20438;-74
2023/02/05 08:20:05;;;;;;;0.30;0.30;;;;;;;;;;5046296;28;20268;-74
2023/02/05 08:22:32;;;;;;;0.30;0.30;;;;;;;;;;5035138;28;20259;-73
2023/02/05 08:25:00;;;;;;;0.30;0.30;;;;;;;;;;5046685;28;20260;-74
2023/02/05 08:27:26;;;;;;;0.30;0.30;;;;;;;;;;5051384;28;20458;-73
2023/02/05 08:29:52;;;;;;;0.30;0.30;;;;;;;;;;5045892;28;20245;-74
2023/02/05 08:32:19;;;;;;;0.30;0.30;;;;;;;;;;5051243;28;20584;-74
2023/02/05 08:34:45;;;;;;;0.30;0.30;;;;;;;;;;5046099;28;20214;-74
2023/02/05 08:37:12;;;;;;;0.30;0.30;;;;;;;;;;5051195;28;20278;-74
2023/02/05 08:39:38;;;;;;;0.30;0.30;;;;;;;;;;5045730;28;20229;-74
2023/02/05 08:42:13;;;;;;;0.30;0.30;;;;;;;;;;5050841;28;20450;-74
2023/02/05 08:44:39;;;;;;;0.30;0.30;;;;;;;;;;5045847;28;20223;-74
2023/02/05 08:47:06;;;;;;;0.30;0.30;;;;;;;;;;5050920;28;20238;-74
2023/02/05 08:49:32;;;;;;;0.30;0.30;;;;;;;;;;5045709;28;20224;-74
2023/02/05 08:51:59;;;;;;;0.30;0.30;;;;;;;;;;5049883;28;20257;-74
2023/02/05 08:54:25;;;;;;;0.30;0.30;;;;;;;;;;5046787;28;20496;-74
2023/02/05 08:56:52;;;;;;;0.30;0.30;;;;;;;;;;5048904;28;20313;-74
2023/02/05 08:59:20;;;;;;;0.30;0.30;;;;;;;;;;5047397;28;20227;-73
2023/02/05 09:01:47;;;;;;;0.30;0.30;;;;;;;;;;5047906;28;20263;-74
2023/02/05 09:04:14;;;;;;;0.23;0.23;;;;;;;;;;5047809;28;20243;-74
2023/02/05 09:06:41;;;;;;;0.30;0.30;;;;;;;;;;5047222;28;20252;-73
2023/02/05 09:09:07;;;;;;;1.30;1.30;;;;;;;;;;5048452;28;20211;-74
2023/02/05 09:11:33;;;;;;;0.30;0.30;;;;;;;;;;5046266;28;20454;-73
2023/02/05 09:14:00;;;;;;;0.30;0.30;;;;;;;;;;5049464;28;20293;-73
2023/02/05 09:16:28;;;;;;;0.30;0.30;;;;;;;;;;5050968;28;20273;-75
2023/02/05 09:18:59;;;;;;;0.30;0.30;;;;;;;;;;5051207;28;20540;-75
2023/02/05 09:21:26;;;;;;;0.30;0.30;;;;;;;;;;5045567;28;20496;-75
2023/02/05 09:23:53;;;;;;;0.30;0.30;;;;;;;;;;5050455;28;20229;-75
2023/02/05 09:26:20;;;;;;;0.30;0.30;;;;;;;;;;5044845;28;20263;-74
2023/02/05 09:28:46;;;;;;;0.20;0.20;;;;;;;;;;5051077;28;20256;-75
2023/02/05 09:31:14;;;;;;;0.30;0.30;;;;;;;;;;5043486;28;20312;-75
2023/02/05 09:33:42;;;;;;;0.30;0.30;;;;;;;;;;5051848;28;20530;-75
2023/02/05 09:36:12;;;;;;;0.30;0.30;;;;;;;;;;5043233;28;20325;-74
2023/02/05 09:38:40;;;;;;;0.20;0.20;;;;;;;;;;5052316;28;20212;-75
2023/02/05 09:41:08;;;;;;;0.20;0.20;;;;;;;;;;5042416;28;20240;-74
2023/02/05 09:43:45;;;;;;;0.23;0.23;;;;;;;;;;5052522;28;20214;-78
2023/02/05 09:46:14;;;;;;;0.33;0.33;;;;;;;;;;5042735;28;20282;-78
2023/02/05 09:48:48;;;;;;;0.20;0.20;;;;;;;;;;5051197;28;20216;-79
2023/02/05 09:51:16;;;;;;;0.20;0.20;;;;;;;;;;5043410;28;20286;-76
2023/02/05 09:53:43;;;;;;;0.20;0.20;;;;;;;;;;5051119;28;20209;-76
2023/02/05 09:56:11;;;;;;;0.30;0.30;;;;;;;;;;5042521;28;20246;-79
2023/02/05 09:58:40;;;;;;;0.30;0.30;;;;;;;;;;5051535;28;20201;-74
2023/02/05 10:01:11;;;;;;;0.30;0.30;;;;;;;;;;5042014;28;20265;-74
2023/02/05 10:03:42;;;;;;;0.37;0.37;;;;;;;;;;5051440;28;20201;-74
2023/02/05 10:06:22;;;;;;;0.20;0.20;;;;;;;;;;5042244;28;20467;-74
2023/02/05 10:08:54;;;;;;;0.30;0.30;;;;;;;;;;5050114;28;20437;-74
2023/02/05 10:11:25;;;;;;;0.30;0.30;;;;;;;;;;5043753;28;20257;-74
2023/02/05 10:13:59;;;;;;;0.30;0.30;;;;;;;;;;5049356;28;20273;-74
2023/02/05 10:16:33;;;;;;;0.30;0.30;;;;;;;;;;5044175;28;20311;-74
2023/02/05 10:19:05;;;;;;;0.27;0.27;;;;;;;;;;5048526;28;20193;-74
2023/02/05 10:21:44;;;;;;;0.20;0.20;;;;;;;;;;5044732;28;20260;-74
2023/02/05 10:24:25;;;;;;;0.23;0.23;;;;;;;;;;5047156;28;20201;-73
2023/02/05 10:26:52;;;;;;;0.20;0.20;;;;;;;;;;5047297;28;20643;-74
2023/02/05 10:29:24;;;;;;;0.20;0.20;;;;;;;;;;5044883;28;20210;-74
2023/02/05 10:31:54;;;;;;;0.23;0.23;;;;;;;;;;5046891;28;20253;-74
2023/02/05 10:34:30;;;;;;;0.20;0.20;;;;;;;;;;5045446;28;20207;-74
2023/02/05 10:36:58;;;;;;;0.20;0.20;;;;;;;;;;5047734;28;20252;-74
2023/02/05 10:39:25;;;;;;;0.20;0.20;;;;;;;;;;5044818;28;20268;-74
2023/02/05 10:41:53;;;;;;;0.20;0.20;;;;;;;;;;5047146;28;20257;-73
2023/02/05 10:44:25;;;;;;;0.20;0.20;;;;;;;;;;5045378;28;20237;-74
2023/02/05 10:46:54;;;;;;;0.20;0.20;;;;;;;;;;5046956;28;20308;-73
2023/02/05 10:49:22;;;;;;;0.27;0.27;;;;;;;;;;5045568;28;20212;-73
2023/02/05 10:51:49;;;;;;;0.20;0.20;;;;;;;;;;5046668;28;20276;-73
2023/02/05 10:54:20;;;;;;;0.27;0.27;;;;;;;;;;5046115;28;20273;-73
2023/02/05 10:56:47;;;;;;;0.23;0.23;;;;;;;;;;5046346;28;20456;-72
2023/02/05 10:59:19;;;;;;;0.20;0.20;;;;;;;;;;5045770;28;20273;-73
2023/02/05 11:01:46;;;;;;;0.27;0.27;;;;;;;;;;5046077;28;20243;-73
2023/02/05 11:04:13;;;;;;;0.40;0.40;;;;;;;;;;5046335;28;20273;-73
2023/02/05 11:06:41;;;;;;;0.30;0.30;;;;;;;;;;5045174;28;20241;-73
2023/02/05 11:09:23;;;;;;;0.30;0.30;;;;;;;;;;5046866;28;20242;-72
2023/02/05 11:11:52;;;;;;;0.30;0.30;;;;;;;;;;5046306;28;20303;-73
2023/02/05 11:14:25;;;;;;;0.30;0.30;;;;;;;;;;5045553;28;20536;-72
2023/02/05 11:16:53;;;;;;;0.30;0.30;;;;;;;;;;5046715;28;20300;-72
2023/02/05 11:19:21;;;;;;;0.23;0.23;;;;;;;;;;5044907;28;20207;-72
2023/02/05 11:21:49;;;;;;;0.20;0.20;;;;;;;;;;5045880;28;20321;-72
2023/02/05 11:24:23;;;;;;;0.20;0.20;;;;;;;;;;5045577;28;20199;-72
2023/02/05 11:26:49;;;;;;;0.30;0.30;;;;;;;;;;5045898;28;20268;-72
2023/02/05 11:29:20;;;;;;;0.60;0.60;;;;;;;;;;5045471;28;20248;-72
2023/02/05 11:31:46;;;;;;;0.30;0.30;;;;;;;;;;5045820;28;20296;-72
2023/02/05 11:34:15;;;;;;;0.27;0.27;;;;;;;;;;5045896;28;20235;-71
2023/02/05 11:36:47;;;;;;;0.20;0.20;;;;;;;;;;5045109;28;20241;-71
2023/02/05 11:39:22;;;;;;;0.27;0.27;;;;;;;;;;5045418;28;20455;-72
2023/02/05 11:41:50;;;;;;;0.20;0.20;;;;;;;;;;5048892;28;20255;-72
2023/02/05 11:44:19;;;;;;;0.20;0.20;;;;;;;;;;5049158;28;20253;-72
2023/02/05 11:46:47;;;;;;;0.20;0.20;;;;;;;;;;5049469;28;20426;-71
2023/02/05 11:49:20;;;;;;;0.20;0.20;;;;;;;;;;5049274;28;20239;-71
2023/02/05 11:51:48;;;;;;;0.20;0.20;;;;;;;;;;5049446;28;20242;-72
2023/02/05 11:54:20;;;;;;;0.20;0.20;;;;;;;;;;5048916;28;20215;-72
2023/02/05 11:56:59;;;;;;;0.20;0.20;;;;;;;;;;5049369;28;20248;-69
2023/02/05 11:59:26;;;;;;;0.20;0.20;;;;;;;;;;5047584;28;20275;-69
2023/02/05 12:01:53;;;;;;;0.30;0.30;;;;;;;;;;5049730;28;20309;-69
2023/02/05 12:04:21;;;;;;;0.20;0.20;;;;;;;;;;5048400;28;20231;-69
2023/02/05 12:06:50;;;;;;;0.20;0.20;;;;;;;;;;5049303;28;20425;-68
2023/02/05 12:09:19;;;;;;;0.20;0.20;;;;;;;;;;5048431;28;20503;-69
2023/02/05 12:12:05;;;;;;;0.20;0.20;;;;;;;;;;5048957;28;20242;-69
2023/02/05 12:14:37;;;;;;;0.20;0.20;;;;;;;;;;5046249;28;20197;-70
2023/02/05 12:17:12;;;;;;;0.20;0.20;;;;;;;;;;5051286;28;20246;-69
2023/02/05 12:19:44;;;;;;;0.20;0.20;;;;;;;;;;5046092;28;20234;-71
2023/02/05 12:22:16;;;;;;;0.20;0.20;;;;;;;;;;5051621;28;20245;-70
2023/02/05 12:24:47;;;;;;;0.20;0.20;;;;;;;;;;5045960;28;20221;-70
2023/02/05 12:27:20;;;;;;;0.20;0.20;;;;;;;;;;5051493;28;20533;-69
2023/02/05 12:30:11;;;;;;;0.20;0.20;;;;;;;;;;5046092;28;20285;-70
2023/02/05 12:32:43;;;;;;;0.20;0.20;;;;;;;;;;5034654;28;20250;-70
2023/02/05 12:35:18;;;;;;;0.20;0.20;;;;;;;;;;5036208;28;20209;-69
2023/02/05 12:37:50;;;;;;;0.20;0.20;;;;;;;;;;5060146;28;20202;-69
2023/02/05 12:40:28;;;;;;;0.20;0.20;;;;;;;;;;5037011;28;20282;-70
2023/02/05 12:42:58;;;;;;;0.20;0.20;;;;;;;;;;5058718;28;20262;-70
2023/02/05 12:45:30;;;;;;;0.20;0.20;;;;;;;;;;5038149;28;20230;-69
2023/02/05 12:48:05;;;;;;;0.20;0.20;;;;;;;;;;5058424;28;20219;-69
2023/02/05 12:50:39;;;;;;;0.20;0.20;;;;;;;;;;5038650;28;20242;-69
2023/02/05 12:53:12;;;;;;;0.20;0.20;;;;;;;;;;5056387;28;20195;-69
2023/02/05 12:55:44;;;;;;;0.20;0.20;;;;;;;;;;5039906;28;20474;-69
2023/02/05 12:58:12;;;;;;;0.20;0.20;;;;;;;;;;5056074;28;20195;-69
2023/02/05 13:00:40;;;;;;;0.20;0.20;;;;;;;;;;5039586;28;20246;-68
2023/02/05 13:03:11;;;;;;;0.20;0.20;;;;;;;;;;5056459;28;20277;-70
2023/02/05 13:05:41;;;;;;;0.20;0.20;;;;;;;;;;5039531;28;20241;-69
2023/02/05 13:08:10;;;;;;;0.20;0.20;;;;;;;;;;5056564;28;20254;-69
2023/02/05 13:10:40;;;;;;;0.20;0.20;;;;;;;;;;5039279;28;20318;-69
2023/02/05 13:13:10;;;;;;;0.20;0.20;;;;;;;;;;5056306;28;20215;-69
2023/02/05 13:15:39;;;;;;;0.20;0.20;;;;;;;;;;5038923;28;20315;-69
2023/02/05 13:18:06;;;;;;;0.20;0.20;;;;;;;;;;5056528;28;20227;-70
2023/02/05 13:28:51;;;;;;;0.20;0.20;;;;;;;;;;5050466;28;20282;-70
2023/02/05 13:31:25;;;;;;;0.20;0.20;;;;;;;;;;5043986;28;20269;-70
2023/02/05 13:33:52;;;;;;;0.20;0.20;;;;;;;;;;5050483;28;20382;-71
2023/02/05 13:36:31;;;;;;;0.20;0.20;;;;;;;;;;5044018;28;20623;-70
2023/02/05 13:39:03;;;;;;;0.20;0.20;;;;;;;;;;5049407;28;20266;-71
2023/02/05 13:41:40;;;;;;;0.20;0.20;;;;;;;;;;5045028;28;20554;-69
2023/02/05 13:44:21;;;;;;;0.20;0.20;;;;;;;;;;5048411;28;20222;-69
2023/02/05 13:46:58;;;;;;;0.20;0.20;;;;;;;;;;5045574;28;20309;-71
2023/02/05 13:49:35;;;;;;;0.20;0.20;;;;;;;;;;5046145;28;20206;-72
2023/02/05 13:52:17;;;;;;;0.20;0.20;;;;;;;;;;5049240;28;20260;-70
2023/02/05 13:55:01;;;;;;;0.30;0.30;;;;;;;;;;5044834;28;20233;-70
2023/02/05 13:57:46;;;;;;;0.20;0.20;;;;;;;;;;5049746;28;20269;-71
2023/02/05 14:00:13;;;;;;;0.20;0.20;;;;;;;;;;5034995;28;20275;-70
2023/02/05 14:02:41;;;;;;;0.20;0.20;;;;;;;;;;5059188;28;20266;-72
2023/02/05 14:05:08;;;;;;;0.20;0.20;;;;;;;;;;5037229;28;20207;-73
2023/02/05 14:07:39;;;;;;;0.20;0.20;;;;;;;;;;5059329;28;20220;-69
2023/02/05 14:10:06;;;;;;;0.20;0.20;;;;;;;;;;5044672;28;20291;-71
2023/02/05 14:12:33;;;;;;;0.20;0.20;;;;;;;;;;5032766;28;20211;-72
2023/02/05 14:15:15;;;;;;;0.20;0.20;;;;;;;;;;5044527;28;20223;-72
2023/02/05 14:17:51;;;;;;;0.20;0.20;;;;;;;;;;5034278;28;20445;-72
2023/02/05 14:20:32;;;;;;;0.20;0.20;;;;;;;;;;5035454;28;20233;-72
2023/02/05 14:23:01;;;;;;;0.20;0.20;;;;;;;;;;5056439;28;20206;-71
2023/02/05 14:25:46;;;;;;;0.20;0.20;;;;;;;;;;5036994;28;20255;-74
2023/02/05 14:28:27;;;;;;;0.20;0.20;;;;;;;;;;5054589;28;20211;-69
2023/02/05 14:30:55;;;;;;;0.20;0.20;;;;;;;;;;5039569;28;20268;-73
2023/02/05 14:33:28;;;;;;;0.20;0.20;;;;;;;;;;5052913;28;20207;-74
2023/02/05 14:35:55;;;;;;;0.20;0.20;;;;;;;;;;5040098;28;20250;-74
2023/02/05 14:38:24;;;;;;;0.20;0.20;;;;;;;;;;5052938;28;20583;-75
2023/02/05 14:41:01;;;;;;;0.23;0.23;;;;;;;;;;5039395;28;20692;-75
2023/02/05 14:43:30;;;;;;;0.20;0.20;;;;;;;;;;5052202;28;20226;-72
2023/02/05 14:45:59;;;;;;;0.20;0.20;;;;;;;;;;5039961;28;20301;-73
2023/02/05 14:48:26;;;;;;;0.20;0.20;;;;;;;;;;5053077;28;20259;-75
2023/02/05 14:51:04;;;;;;;0.20;0.20;;;;;;;;;;5039604;28;20277;-76
2023/02/05 14:53:32;;;;;;;0.20;0.20;;;;;;;;;;5052169;28;20206;-75
2023/02/05 14:55:59;;;;;;;0.20;0.20;;;;;;;;;;5040344;28;20253;-74
2023/02/05 14:58:28;;;;;;;0.20;0.20;;;;;;;;;;5053061;28;20569;-75
2023/02/05 15:01:09;;;;;;;0.20;0.20;;;;;;;;;;5040128;28;20238;-74
2023/02/05 15:03:38;;;;;;;0.20;0.20;;;;;;;;;;5050948;28;20194;-74
2023/02/05 15:06:07;;;;;;;0.20;0.20;;;;;;;;;;5040994;28;20494;-74
2023/02/05 15:08:42;;;;;;;0.20;0.20;;;;;;;;;;5050894;28;20215;-75